Time;durP1;ratioP1;P1;durP2;ratioP2;P2;SDS_P1;SDS_P2;PMS_P1;PMS_P2;Temp;Humidity;BMP_temperature;BMP_pressure;BME280_temperature;BME280_humidity;BME280_pressure;Samples;Min_cycle;Max_cycle;Signal;HPM_P1;HPM_P2
2022/10/11 00:01:02;;;;;;;8.85;4.38;;;;;;;;;;6095219;23;20458;-70
2022/10/11 00:03:47;;;;;;;13.57;4.10;;;;;;;;;;6094803;23;20005;-71
2022/10/11 00:06:33;;;;;;;7.30;3.53;;;;;;;;;;6094919;23;20049;-71
2022/10/11 00:09:18;;;;;;;9.18;3.67;;;;;;;;;;6097992;23;20045;-70
2022/10/11 00:12:03;;;;;;;9.65;3.95;;;;;;;;;;6095749;23;20013;-69
2022/10/11 00:14:48;;;;;;;8.70;3.90;;;;;;;;;;6094972;23;20014;-70
2022/10/11 00:17:34;;;;;;;8.13;4.32;;;;;;;;;;6094864;23;20017;-69
2022/10/11 00:20:19;;;;;;;11.73;4.07;;;;;;;;;;6098169;23;20060;-69
2022/10/11 00:23:04;;;;;;;11.00;4.05;;;;;;;;;;6098720;23;20033;-70
2022/10/11 00:25:57;;;;;;;9.10;4.07;;;;;;;;;;6097208;23;20010;-70
2022/10/11 00:28:42;;;;;;;9.85;3.97;;;;;;;;;;6095016;23;20460;-74
2022/10/11 00:31:27;;;;;;;12.57;4.45;;;;;;;;;;6096373;23;20013;-74
2022/10/11 00:34:14;;;;;;;10.90;3.55;;;;;;;;;;6097423;23;20002;-73
2022/10/11 00:36:59;;;;;;;7.75;3.67;;;;;;;;;;6096133;23;20014;-73
2022/10/11 00:39:44;;;;;;;14.32;4.18;;;;;;;;;;6075755;23;20117;-74
2022/10/11 00:42:30;;;;;;;7.47;3.95;;;;;;;;;;6097480;23;20017;-73
2022/10/11 00:45:30;;;;;;;11.38;3.95;;;;;;;;;;6096815;23;20369;-71
2022/10/11 00:48:20;;;;;;;6.28;4.05;;;;;;;;;;6095489;23;20013;-70
2022/10/11 00:51:25;;;;;;;10.10;3.90;;;;;;;;;;6096765;23;20013;-70
2022/10/11 00:54:12;;;;;;;7.82;4.15;;;;;;;;;;6097724;23;20006;-70
2022/10/11 00:57:01;;;;;;;10.80;4.38;;;;;;;;;;6096834;23;20068;-69
2022/10/11 00:59:50;;;;;;;14.05;4.60;;;;;;;;;;6095859;23;20035;-70
2022/10/11 01:02:35;;;;;;;;;;;;;;;;;;6097106;23;20017;-74
2022/10/11 01:05:21;;;;;;;8.98;4.68;;;;;;;;;;6096470;23;19915;-66
2022/10/11 01:08:07;;;;;;;9.48;3.80;;;;;;;;;;6096778;23;20010;-66
2022/10/11 01:10:52;;;;;;;8.65;3.80;;;;;;;;;;6095748;23;20020;-67
2022/10/11 01:13:37;;;;;;;6.32;3.17;;;;;;;;;;6092234;23;20010;-67
2022/10/11 01:16:35;;;;;;;13.00;4.03;;;;;;;;;;6092711;23;20033;-68
2022/10/11 01:19:29;;;;;;;10.18;5.13;;;;;;;;;;6092844;23;20085;-68
2022/10/11 01:22:35;;;;;;;5.97;3.63;;;;;;;;;;6096353;23;20369;-71
2022/10/11 01:25:20;;;;;;;9.52;3.92;;;;;;;;;;6123868;23;20452;-73
2022/10/11 01:28:25;;;;;;;8.88;3.55;;;;;;;;;;6095277;23;20434;-71
2022/10/11 01:31:13;;;;;;;6.35;3.00;;;;;;;;;;6096078;23;20010;-70
2022/10/11 01:34:04;;;;;;;7.18;3.13;;;;;;;;;;6095677;23;20200;-70
2022/10/11 01:36:56;;;;;;;6.70;3.03;;;;;;;;;;6095957;23;20010;-71
2022/10/11 01:39:45;;;;;;;9.88;3.10;;;;;;;;;;6096573;23;20010;-70
2022/10/11 01:42:30;;;;;;;9.67;3.90;;;;;;;;;;6096421;23;20014;-68
2022/10/11 01:45:17;;;;;;;9.07;3.88;;;;;;;;;;6096093;23;20561;-68
2022/10/11 01:48:06;;;;;;;13.13;4.15;;;;;;;;;;6095475;23;20002;-67
2022/10/11 01:50:53;;;;;;;9.33;3.23;;;;;;;;;;6094746;23;20683;-67
2022/10/11 01:53:45;;;;;;;9.77;3.15;;;;;;;;;;6095687;23;20262;-68
2022/10/11 01:56:30;;;;;;;7.55;3.35;;;;;;;;;;6100072;23;20010;-67
2022/10/11 01:59:21;;;;;;;13.25;3.80;;;;;;;;;;6096029;23;20009;-73
2022/10/11 02:02:09;;;;;;;5.97;3.42;;;;;;;;;;6096083;23;20318;-70
2022/10/11 02:05:00;;;;;;;9.30;3.25;;;;;;;;;;6094872;23;20034;-70
2022/10/11 02:07:48;;;;;;;5.03;3.10;;;;;;;;;;6094690;23;20388;-69
2022/10/11 02:10:38;;;;;;;8.38;3.28;;;;;;;;;;6094779;23;20089;-70
2022/10/11 02:13:30;;;;;;;8.43;4.45;;;;;;;;;;6092817;23;20426;-71
2022/10/11 02:16:17;;;;;;;9.13;3.90;;;;;;;;;;6096172;23;20014;-81
2022/10/11 02:19:04;;;;;;;8.73;3.65;;;;;;;;;;6096182;23;20446;-70
2022/10/11 02:21:51;;;;;;;7.00;3.50;;;;;;;;;;6096054;23;20013;-72
2022/10/11 02:24:38;;;;;;;4.90;2.60;;;;;;;;;;6096486;23;20029;-70
2022/10/11 02:27:25;;;;;;;7.10;2.90;;;;;;;;;;6096327;23;19998;-71
2022/10/11 02:30:11;;;;;;;7.07;2.65;;;;;;;;;;6100855;23;20018;-72
2022/10/11 02:32:57;;;;;;;8.68;3.45;;;;;;;;;;6095504;23;20025;-70
2022/10/11 02:35:44;;;;;;;7.82;2.85;;;;;;;;;;6095052;23;20394;-82
2022/10/11 02:38:35;;;;;;;7.72;2.92;;;;;;;;;;6095188;23;20456;-71
2022/10/11 02:41:58;;;;;;;11.68;3.75;;;;;;;;;;6093155;23;20464;-73
2022/10/11 02:44:46;;;;;;;8.07;3.58;;;;;;;;;;6094966;23;20006;-70
2022/10/11 02:47:32;;;;;;;8.82;3.65;;;;;;;;;;6095812;23;20522;-72
2022/10/11 02:50:17;;;;;;;12.82;5.10;;;;;;;;;;6095059;23;20076;-72
2022/10/11 02:53:03;;;;;;;8.73;3.42;;;;;;;;;;6095852;23;20299;-72
2022/10/11 02:55:49;;;;;;;9.35;3.50;;;;;;;;;;6095572;23;20029;-78
2022/10/11 02:58:35;;;;;;;8.35;3.55;;;;;;;;;;6096550;23;20009;-80
2022/10/11 03:01:20;;;;;;;10.55;3.70;;;;;;;;;;6102443;23;19998;-79
2022/10/11 03:04:05;;;;;;;6.78;3.50;;;;;;;;;;6095909;23;20009;-78
2022/10/11 03:06:50;;;;;;;6.32;3.00;;;;;;;;;;6094811;23;20010;-78
2022/10/11 03:09:36;;;;;;;8.63;3.75;;;;;;;;;;6095059;23;20061;-78
2022/10/11 03:12:21;;;;;;;6.32;2.97;;;;;;;;;;6095500;23;20002;-69
2022/10/11 03:15:06;;;;;;;8.32;3.55;;;;;;;;;;6095194;23;20437;-82
2022/10/11 03:17:51;;;;;;;7.50;3.63;;;;;;;;;;6095149;23;20045;-82
2022/10/11 03:20:37;;;;;;;5.20;2.80;;;;;;;;;;6095508;23;20006;-84
2022/10/11 03:23:22;;;;;;;9.30;3.85;;;;;;;;;;6096427;23;20017;-83
2022/10/11 03:26:07;;;;;;;14.68;3.78;;;;;;;;;;6096355;23;20005;-82
2022/10/11 03:28:52;;;;;;;8.20;3.60;;;;;;;;;;6096906;23;20010;-79
2022/10/11 03:31:38;;;;;;;13.00;3.85;;;;;;;;;;6097113;23;20013;-71
2022/10/11 03:34:23;;;;;;;5.70;2.97;;;;;;;;;;6100281;23;20364;-79
2022/10/11 03:37:08;;;;;;;11.38;5.05;;;;;;;;;;6095037;23;20010;-79
2022/10/11 03:39:53;;;;;;;7.10;3.67;;;;;;;;;;6094551;23;20002;-80
2022/10/11 03:42:39;;;;;;;6.97;3.50;;;;;;;;;;6096375;23;20017;-77
2022/10/11 03:45:24;;;;;;;9.73;3.75;;;;;;;;;;6114867;23;20532;-77
2022/10/11 03:48:09;;;;;;;7.78;3.88;;;;;;;;;;6096380;23;20079;-69
2022/10/11 03:50:55;;;;;;;12.43;3.58;;;;;;;;;;6094421;23;20093;-79
2022/10/11 03:53:40;;;;;;;10.70;3.90;;;;;;;;;;6096020;23;20048;-78
2022/10/11 03:56:25;;;;;;;7.70;3.47;;;;;;;;;;6095457;23;20514;-79
2022/10/11 03:59:11;;;;;;;7.70;3.38;;;;;;;;;;6095819;23;20006;-78
2022/10/11 04:01:56;;;;;;;11.00;3.47;;;;;;;;;;6094697;23;20016;-79
2022/10/11 04:04:41;;;;;;;6.65;3.45;;;;;;;;;;6103014;23;20041;-78
2022/10/11 04:07:26;;;;;;;6.28;3.28;;;;;;;;;;6096879;23;20006;-70
2022/10/11 04:10:12;;;;;;;9.77;3.53;;;;;;;;;;6096824;23;20497;-70
2022/10/11 04:12:57;;;;;;;5.43;2.92;;;;;;;;;;6096852;23;20064;-70
2022/10/11 04:15:42;;;;;;;7.45;3.30;;;;;;;;;;6097021;23;20095;-71
2022/10/11 04:18:27;;;;;;;8.68;4.85;;;;;;;;;;6097500;23;20002;-71
2022/10/11 04:21:13;;;;;;;9.05;3.42;;;;;;;;;;6096685;23;20014;-70
2022/10/11 04:23:58;;;;;;;8.10;3.97;;;;;;;;;;6096483;23;20801;-71
2022/10/11 04:26:43;;;;;;;11.48;4.07;;;;;;;;;;6097793;23;20009;-71
2022/10/11 04:29:28;;;;;;;7.70;4.28;;;;;;;;;;6095889;23;20045;-72
2022/10/11 04:32:14;;;;;;;9.93;4.15;;;;;;;;;;6097226;23;20033;-70
2022/10/11 04:34:59;;;;;;;9.10;5.22;;;;;;;;;;6096777;23;20422;-72
2022/10/11 04:37:44;;;;;;;10.07;5.40;;;;;;;;;;6103233;23;20010;-71
2022/10/11 04:40:29;;;;;;;9.20;4.93;;;;;;;;;;6096562;23;20319;-72
2022/10/11 04:43:16;;;;;;;11.80;4.30;;;;;;;;;;6096632;23;20010;-72
2022/10/11 04:46:02;;;;;;;9.15;4.53;;;;;;;;;;6101484;23;20002;-74
2022/10/11 04:48:47;;;;;;;7.70;3.78;;;;;;;;;;6117060;23;20056;-75
2022/10/11 04:51:32;;;;;;;12.30;5.57;;;;;;;;;;6097046;23;20559;-74
2022/10/11 04:54:18;;;;;;;13.25;4.45;;;;;;;;;;6096917;23;20006;-75
2022/10/11 04:57:03;;;;;;;7.60;4.70;;;;;;;;;;6097606;23;20060;-74
2022/10/11 04:59:48;;;;;;;8.48;4.22;;;;;;;;;;6077113;23;20077;-73
2022/10/11 05:02:33;;;;;;;13.05;5.75;;;;;;;;;;6097770;23;20051;-80
2022/10/11 05:05:19;;;;;;;11.25;5.47;;;;;;;;;;6101191;23;20010;-72
2022/10/11 05:08:04;;;;;;;16.27;10.65;;;;;;;;;;6100504;23;20029;-72
2022/10/11 05:11:00;;;;;;;13.60;6.80;;;;;;;;;;6118844;23;20105;-73
2022/10/11 05:13:45;;;;;;;19.58;8.77;;;;;;;;;;6096734;23;20017;-71
2022/10/11 05:16:30;;;;;;;18.70;10.18;;;;;;;;;;6117022;23;20002;-72
2022/10/11 05:19:16;;;;;;;19.25;11.88;;;;;;;;;;6115860;23;20006;-71
2022/10/11 05:22:01;;;;;;;25.92;11.65;;;;;;;;;;6096574;23;20040;-72
2022/10/11 05:24:46;;;;;;;20.33;11.88;;;;;;;;;;6096940;23;20010;-68
2022/10/11 05:27:31;;;;;;;20.48;11.20;;;;;;;;;;6094756;23;20013;-67
2022/10/11 05:30:17;;;;;;;30.00;12.57;;;;;;;;;;6094646;23;20314;-68
2022/10/11 05:33:02;;;;;;;22.80;12.10;;;;;;;;;;6117353;23;20013;-68
2022/10/11 05:35:48;;;;;;;24.42;13.27;;;;;;;;;;6096504;23;20006;-67
2022/10/11 05:38:33;;;;;;;19.95;12.90;;;;;;;;;;6096345;23;20072;-79
2022/10/11 05:41:18;;;;;;;24.00;14.18;;;;;;;;;;6103102;23;20010;-74
2022/10/11 05:44:06;;;;;;;24.25;14.70;;;;;;;;;;6096563;23;20105;-71
2022/10/11 05:46:51;;;;;;;23.33;14.07;;;;;;;;;;6093866;23;20002;-73
2022/10/11 05:49:36;;;;;;;22.25;13.32;;;;;;;;;;6096253;23;20045;-71
2022/10/11 05:52:21;;;;;;;23.52;13.40;;;;;;;;;;6095971;23;20017;-71
2022/10/11 05:55:07;;;;;;;22.30;13.30;;;;;;;;;;6096642;23;20010;-72
2022/10/11 05:57:56;;;;;;;22.60;13.55;;;;;;;;;;6095736;23;19998;-71
2022/10/11 06:00:41;;;;;;;22.73;13.00;;;;;;;;;;6116513;23;20033;-67
2022/10/11 06:03:26;;;;;;;27.20;14.18;;;;;;;;;;6095739;23;20002;-71
2022/10/11 06:06:12;;;;;;;24.75;12.48;;;;;;;;;;6115628;23;20014;-66
2022/10/11 06:08:57;;;;;;;26.35;14.13;;;;;;;;;;6116030;23;20006;-66
2022/10/11 06:11:44;;;;;;;20.95;13.70;;;;;;;;;;6118310;23;20076;-66
2022/10/11 06:14:29;;;;;;;28.15;15.73;;;;;;;;;;6119333;23;20014;-69
2022/10/11 06:17:14;;;;;;;26.23;14.27;;;;;;;;;;6095848;23;20014;-80
2022/10/11 06:20:00;;;;;;;22.67;13.38;;;;;;;;;;6115655;23;20502;-70
2022/10/11 06:22:45;;;;;;;31.70;14.32;;;;;;;;;;6094817;23;20020;-70
2022/10/11 06:25:30;;;;;;;29.80;13.40;;;;;;;;;;6095934;23;20438;-69
2022/10/11 06:28:15;;;;;;;27.30;16.52;;;;;;;;;;6095376;23;20029;-68
2022/10/11 06:31:02;;;;;;;24.02;13.38;;;;;;;;;;6115172;23;20018;-70
2022/10/11 06:33:47;;;;;;;24.90;11.65;;;;;;;;;;6095985;23;20009;-77
2022/10/11 06:36:37;;;;;;;19.33;11.85;;;;;;;;;;6095431;23;20060;-72
2022/10/11 06:39:23;;;;;;;22.45;12.05;;;;;;;;;;6095714;23;20010;-73
2022/10/11 06:42:11;;;;;;;21.17;13.30;;;;;;;;;;6115338;23;20053;-72
2022/10/11 06:44:56;;;;;;;22.33;14.27;;;;;;;;;;6103847;23;20002;-74
2022/10/11 06:47:41;;;;;;;19.48;12.85;;;;;;;;;;6114950;23;20018;-72
2022/10/11 06:50:27;;;;;;;29.05;14.38;;;;;;;;;;6095241;23;20010;-71
2022/10/11 06:53:12;;;;;;;20.17;12.23;;;;;;;;;;6095913;23;20037;-65
2022/10/11 06:56:01;;;;;;;21.30;12.35;;;;;;;;;;6096092;23;20012;-76
2022/10/11 06:58:47;;;;;;;24.63;12.55;;;;;;;;;;6116169;23;20346;-78
2022/10/11 07:01:32;;;;;;;17.70;11.65;;;;;;;;;;6094372;23;20014;-79
2022/10/11 07:04:17;;;;;;;24.52;12.43;;;;;;;;;;6095630;23;20014;-75
2022/10/11 07:07:02;;;;;;;22.70;13.35;;;;;;;;;;6115387;23;20002;-76
2022/10/11 07:09:48;;;;;;;20.98;12.95;;;;;;;;;;6095243;23;20013;-78
2022/10/11 07:12:33;;;;;;;21.50;12.90;;;;;;;;;;6115649;23;20021;-79
2022/10/11 07:15:18;;;;;;;26.48;13.10;;;;;;;;;;6117399;23;20429;-73
2022/10/11 07:18:03;;;;;;;21.98;13.45;;;;;;;;;;6100672;23;20006;-72
2022/10/11 07:20:48;;;;;;;22.48;14.07;;;;;;;;;;6094676;23;20442;-72
2022/10/11 07:23:34;;;;;;;21.70;12.70;;;;;;;;;;6095262;23;20012;-71
2022/10/11 07:26:19;;;;;;;19.13;12.23;;;;;;;;;;6095149;23;20010;-73
2022/10/11 07:29:09;;;;;;;21.10;13.27;;;;;;;;;;6094675;23;20012;-67
2022/10/11 07:31:54;;;;;;;25.05;13.40;;;;;;;;;;6095815;23;20021;-76
2022/10/11 07:34:39;;;;;;;23.58;12.77;;;;;;;;;;6073634;23;20040;-76
2022/10/11 07:37:24;;;;;;;19.73;11.98;;;;;;;;;;6097375;23;20009;-74
2022/10/11 07:40:10;;;;;;;21.25;13.23;;;;;;;;;;6096721;23;20499;-75
2022/10/11 07:42:56;;;;;;;25.10;13.63;;;;;;;;;;6097471;23;20390;-73
2022/10/11 07:45:44;;;;;;;25.08;15.05;;;;;;;;;;6117514;23;20006;-72
2022/10/11 07:48:30;;;;;;;26.23;13.85;;;;;;;;;;6122867;23;20029;-78
2022/10/11 07:51:18;;;;;;;23.95;13.50;;;;;;;;;;6117510;23;20056;-75
2022/10/11 07:54:03;;;;;;;21.90;12.98;;;;;;;;;;6097113;23;20002;-74
2022/10/11 07:56:48;;;;;;;25.10;14.25;;;;;;;;;;6097022;23;20056;-73
2022/10/11 07:59:34;;;;;;;26.17;12.77;;;;;;;;;;6096708;23;20006;-70
2022/10/11 08:02:21;;;;;;;23.70;14.02;;;;;;;;;;6116780;23;20020;-74
2022/10/11 08:05:07;;;;;;;23.85;14.13;;;;;;;;;;6096148;23;20017;-70
2022/10/11 08:07:52;;;;;;;21.70;12.50;;;;;;;;;;6096979;23;20006;-72
2022/10/11 08:10:38;;;;;;;22.23;12.18;;;;;;;;;;6096891;23;20436;-71
2022/10/11 08:13:23;;;;;;;21.75;12.32;;;;;;;;;;6117458;23;20009;-71
2022/10/11 08:16:10;;;;;;;24.42;12.30;;;;;;;;;;6096724;23;20504;-74
2022/10/11 08:18:55;;;;;;;21.45;11.80;;;;;;;;;;6096536;23;20016;-74
2022/10/11 08:21:40;;;;;;;23.15;13.13;;;;;;;;;;6122895;23;20029;-74
2022/10/11 08:24:26;;;;;;;24.30;12.13;;;;;;;;;;6097297;23;20009;-74
2022/10/11 08:27:11;;;;;;;23.60;13.40;;;;;;;;;;6096521;23;20664;-74
2022/10/11 08:29:56;;;;;;;25.17;13.20;;;;;;;;;;6096976;23;20537;-75
2022/10/11 08:32:41;;;;;;;21.48;13.65;;;;;;;;;;6096366;23;20010;-74
2022/10/11 08:35:27;;;;;;;23.65;12.68;;;;;;;;;;6116857;23;20014;-74
2022/10/11 08:38:12;;;;;;;24.95;13.07;;;;;;;;;;6117057;23;20012;-73
2022/10/11 08:40:58;;;;;;;23.10;14.57;;;;;;;;;;6116910;23;20002;-75
2022/10/11 08:43:53;;;;;;;24.67;12.57;;;;;;;;;;6116317;23;20009;-73
2022/10/11 08:46:40;;;;;;;23.00;13.18;;;;;;;;;;6096840;23;20093;-74
2022/10/11 08:49:27;;;;;;;22.08;12.38;;;;;;;;;;6096106;23;20298;-74
2022/10/11 08:52:18;;;;;;;24.75;12.25;;;;;;;;;;6120983;23;20001;-73
2022/10/11 08:55:05;;;;;;;26.42;12.57;;;;;;;;;;6117877;23;20020;-73
2022/10/11 08:57:52;;;;;;;26.92;13.65;;;;;;;;;;6116730;23;20010;-73
2022/10/11 09:00:39;;;;;;;23.38;13.40;;;;;;;;;;6116973;23;20006;-74
2022/10/11 09:03:37;;;;;;;19.48;11.75;;;;;;;;;;6116471;23;20002;-75
2022/10/11 09:06:22;;;;;;;35.67;15.48;;;;;;;;;;6096747;23;20017;-74
2022/10/11 09:09:26;;;;;;;25.50;11.23;;;;;;;;;;6097068;23;20441;-74
2022/10/11 09:12:20;;;;;;;19.17;11.52;;;;;;;;;;6096279;23;20020;-74
2022/10/11 09:15:28;;;;;;;22.17;11.65;;;;;;;;;;6096331;23;20006;-71
2022/10/11 09:18:17;;;;;;;25.48;14.15;;;;;;;;;;6096148;23;20341;-73
2022/10/11 09:21:21;;;;;;;25.30;12.88;;;;;;;;;;6096284;23;20013;-75
2022/10/11 09:24:06;;;;;;;26.70;13.13;;;;;;;;;;6120446;23;20005;-70
2022/10/11 09:26:59;;;;;;;27.25;13.38;;;;;;;;;;6098213;23;20055;-69
2022/10/11 09:29:50;;;;;;;31.60;13.57;;;;;;;;;;6116272;23;20054;-69
2022/10/11 09:32:37;;;;;;;27.45;15.07;;;;;;;;;;6116214;23;20033;-69
2022/10/11 09:35:22;;;;;;;20.77;14.05;;;;;;;;;;6116596;23;20085;-70
2022/10/11 09:38:10;;;;;;;24.00;13.40;;;;;;;;;;6096986;23;20119;-77
2022/10/11 09:41:02;;;;;;;27.95;13.93;;;;;;;;;;6116688;23;20033;-80
2022/10/11 09:43:48;;;;;;;26.98;14.63;;;;;;;;;;6097635;23;20013;-80
2022/10/11 09:46:35;;;;;;;29.55;13.75;;;;;;;;;;6116218;23;20002;-79
2022/10/11 09:49:22;;;;;;;27.38;12.30;;;;;;;;;;6116801;23;20014;-77
2022/10/11 09:52:13;;;;;;;27.23;14.40;;;;;;;;;;6117943;23;20006;-78
2022/10/11 09:55:00;;;;;;;22.33;13.90;;;;;;;;;;6096940;23;20045;-79
2022/10/11 09:57:52;;;;;;;22.83;13.23;;;;;;;;;;6123063;23;20056;-69
2022/10/11 10:00:38;;;;;;;30.98;15.32;;;;;;;;;;6116395;23;20045;-72
2022/10/11 10:03:27;;;;;;;26.65;14.35;;;;;;;;;;6096840;23;20002;-74
2022/10/11 10:06:15;;;;;;;24.27;13.70;;;;;;;;;;6096183;23;20438;-73
2022/10/11 10:09:19;;;;;;;27.00;14.90;;;;;;;;;;6095569;23;20002;-74
2022/10/11 10:12:10;;;;;;;22.90;13.23;;;;;;;;;;6116130;23;20449;-74
2022/10/11 10:14:58;;;;;;;23.60;14.13;;;;;;;;;;6115822;23;20006;-79
2022/10/11 10:17:51;;;;;;;29.95;13.57;;;;;;;;;;6096183;23;20013;-77
2022/10/11 10:20:36;;;;;;;27.90;14.55;;;;;;;;;;6096499;23;20081;-74
2022/10/11 10:23:26;;;;;;;26.02;14.25;;;;;;;;;;6116863;23;20057;-73
2022/10/11 10:26:16;;;;;;;30.67;14.35;;;;;;;;;;6096272;23;20005;-73
2022/10/11 10:29:07;;;;;;;23.63;14.07;;;;;;;;;;6123413;23;20307;-73
2022/10/11 10:31:54;;;;;;;24.80;13.23;;;;;;;;;;6095561;23;20042;-71
2022/10/11 10:35:05;;;;;;;22.70;13.93;;;;;;;;;;6116488;23;20029;-67
2022/10/11 10:38:13;;;;;;;28.55;13.02;;;;;;;;;;6096534;23;20014;-66
2022/10/11 10:41:03;;;;;;;23.92;13.65;;;;;;;;;;6096427;23;20006;-66
2022/10/11 10:43:52;;;;;;;31.00;13.95;;;;;;;;;;6096092;23;20025;-68
2022/10/11 10:46:49;;;;;;;27.48;13.20;;;;;;;;;;6096012;23;20016;-68
2022/10/11 10:49:42;;;;;;;24.80;13.85;;;;;;;;;;6096566;23;20002;-68
2022/10/11 10:52:46;;;;;;;27.90;15.00;;;;;;;;;;6116081;23;20492;-78
2022/10/11 10:55:34;;;;;;;21.13;13.02;;;;;;;;;;6115960;23;20397;-75
2022/10/11 10:58:23;;;;;;;25.17;13.60;;;;;;;;;;6096151;23;20024;-75
2022/10/11 11:01:11;;;;;;;25.73;12.20;;;;;;;;;;6123082;23;20002;-73
2022/10/11 11:03:57;;;;;;;25.67;13.68;;;;;;;;;;6095841;23;20010;-76
2022/10/11 11:06:42;;;;;;;24.25;14.15;;;;;;;;;;6095813;23;20006;-76
2022/10/11 11:09:43;;;;;;;24.23;14.63;;;;;;;;;;6094155;23;20372;-73
2022/10/11 11:12:48;;;;;;;23.75;12.63;;;;;;;;;;6116205;23;20051;-72
2022/10/11 11:15:37;;;;;;;21.27;12.40;;;;;;;;;;6115114;23;20390;-72
2022/10/11 11:18:27;;;;;;;23.85;12.10;;;;;;;;;;6115229;23;20453;-71
2022/10/11 11:21:12;;;;;;;26.25;12.23;;;;;;;;;;6115794;23;20085;-71
2022/10/11 11:23:57;;;;;;;18.77;10.43;;;;;;;;;;6094511;23;20013;-72
2022/10/11 11:26:58;;;;;;;19.95;11.65;;;;;;;;;;6095308;23;20437;-72
2022/10/11 11:29:57;;;;;;;22.88;11.43;;;;;;;;;;6094037;23;20089;-67
2022/10/11 11:32:51;;;;;;;24.77;11.47;;;;;;;;;;6101535;23;20009;-74
2022/10/11 11:35:41;;;;;;;18.58;11.23;;;;;;;;;;6114791;23;20261;-75
2022/10/11 11:38:39;;;;;;;24.63;11.02;;;;;;;;;;6115346;23;20449;-74
2022/10/11 11:41:32;;;;;;;20.58;11.18;;;;;;;;;;6095559;23;20010;-75
2022/10/11 11:44:31;;;;;;;22.77;10.98;;;;;;;;;;6114373;23;20006;-76
2022/10/11 11:47:30;;;;;;;20.33;10.73;;;;;;;;;;6115341;23;20010;-74
2022/10/11 11:50:23;;;;;;;21.63;11.05;;;;;;;;;;6095225;23;20486;-79
2022/10/11 11:53:14;;;;;;;20.33;10.63;;;;;;;;;;6115388;23;20060;-76
2022/10/11 11:56:02;;;;;;;20.20;9.77;;;;;;;;;;6115276;23;20040;-75
2022/10/11 11:58:51;;;;;;;18.92;11.00;;;;;;;;;;6095012;23;20048;-77
2022/10/11 12:01:43;;;;;;;23.70;11.10;;;;;;;;;;6095604;23;20010;-77
2022/10/11 12:04:30;;;;;;;15.50;9.73;;;;;;;;;;6120325;23;20338;-78
2022/10/11 12:07:17;;;;;;;17.60;9.82;;;;;;;;;;6095253;23;20139;-74
2022/10/11 12:10:23;;;;;;;19.02;9.57;;;;;;;;;;6095296;23;20010;-77
2022/10/11 12:13:17;;;;;;;16.63;10.52;;;;;;;;;;6095485;23;20330;-75
2022/10/11 12:16:03;;;;;;;17.42;10.15;;;;;;;;;;6115008;23;20005;-76
2022/10/11 12:19:01;;;;;;;17.90;9.77;;;;;;;;;;6095666;23;20084;-73
2022/10/11 12:22:07;;;;;;;18.67;10.03;;;;;;;;;;6096531;23;20005;-72
2022/10/11 12:24:55;;;;;;;15.60;8.73;;;;;;;;;;6117056;23;20123;-66
2022/10/11 12:27:42;;;;;;;21.13;10.45;;;;;;;;;;6095032;23;20006;-71
2022/10/11 12:30:42;;;;;;;15.80;9.10;;;;;;;;;;6075532;23;20008;-72
2022/10/11 12:33:31;;;;;;;18.02;9.55;;;;;;;;;;6096463;23;20041;-70
2022/10/11 12:36:35;;;;;;;15.23;8.97;;;;;;;;;;6101155;23;20209;-71
2022/10/11 12:39:20;;;;;;;20.35;10.68;;;;;;;;;;6096002;23;20405;-69
2022/10/11 12:42:16;;;;;;;23.13;10.75;;;;;;;;;;6093723;23;20002;-74
2022/10/11 12:45:14;;;;;;;14.15;9.13;;;;;;;;;;6117099;23;20006;-75
2022/10/11 12:48:21;;;;;;;15.50;9.68;;;;;;;;;;6097026;23;20430;-77
2022/10/11 12:51:19;;;;;;;15.40;8.68;;;;;;;;;;6096756;23;20318;-76
2022/10/11 12:54:16;;;;;;;14.73;8.15;;;;;;;;;;6096672;23;20017;-75
2022/10/11 12:57:11;;;;;;;13.43;8.35;;;;;;;;;;6096165;23;20016;-76
2022/10/11 13:00:07;;;;;;;18.58;10.13;;;;;;;;;;6096545;23;20009;-65
2022/10/11 13:02:52;;;;;;;15.50;8.88;;;;;;;;;;6096239;23;20372;-65
2022/10/11 13:05:37;;;;;;;20.30;9.50;;;;;;;;;;6096651;23;20368;-66
2022/10/11 13:08:35;;;;;;;14.18;8.18;;;;;;;;;;6100625;23;20289;-65
2022/10/11 13:11:22;;;;;;;15.30;8.23;;;;;;;;;;6096383;23;20006;-65
2022/10/11 13:14:09;;;;;;;14.68;8.27;;;;;;;;;;6096314;23;20014;-67
2022/10/11 13:17:06;;;;;;;12.85;7.15;;;;;;;;;;6096403;23;20021;-70
2022/10/11 13:19:59;;;;;;;18.00;8.15;;;;;;;;;;6096331;23;20380;-75
2022/10/11 13:22:48;;;;;;;15.88;7.65;;;;;;;;;;6096651;23;20018;-77
2022/10/11 13:25:33;;;;;;;;;;;;;;;;;;6120958;23;20345;-75
2022/10/11 13:28:19;;;;;;;13.70;7.90;;;;;;;;;;6124662;23;19905;-76
2022/10/11 13:31:04;;;;;;;13.07;7.70;;;;;;;;;;6125788;22;20028;-77
2022/10/11 13:33:53;;;;;;;19.65;7.95;;;;;;;;;;6125757;23;20045;-73
2022/10/11 13:36:39;;;;;;;18.33;7.23;;;;;;;;;;6106074;23;20009;-75
2022/10/11 13:39:28;;;;;;;13.55;8.05;;;;;;;;;;6125119;23;20001;-75
2022/10/11 13:42:13;;;;;;;;;;;;;;;;;;6110871;23;20006;-69
2022/10/11 13:44:59;;;;;;;12.23;6.63;;;;;;;;;;6105264;23;20229;-69
2022/10/11 13:47:44;;;;;;;17.27;7.90;;;;;;;;;;6124908;23;20092;-70
2022/10/11 13:50:32;;;;;;;13.98;7.13;;;;;;;;;;6125735;22;20067;-70
2022/10/11 13:53:17;;;;;;;12.40;6.88;;;;;;;;;;6125905;22;20006;-69
2022/10/11 13:56:04;;;;;;;14.15;7.25;;;;;;;;;;6125170;23;20005;-78
2022/10/11 13:58:51;;;;;;;14.75;6.35;;;;;;;;;;6125412;23;20043;-69
2022/10/11 14:01:38;;;;;;;14.95;7.10;;;;;;;;;;6232713;22;20055;-68
2022/10/11 14:04:24;;;;;;;17.58;9.35;;;;;;;;;;6125048;23;20006;-70
2022/10/11 14:07:35;;;;;;;12.10;6.95;;;;;;;;;;6125132;23;20008;-73
2022/10/11 14:10:21;;;;;;;14.13;6.32;;;;;;;;;;6104491;23;20005;-72
2022/10/11 14:13:33;;;;;;;10.35;6.25;;;;;;;;;;6240978;22;20006;-70
2022/10/11 14:16:19;;;;;;;12.57;7.00;;;;;;;;;;6125133;23;20092;-74
2022/10/11 14:19:09;;;;;;;15.10;6.57;;;;;;;;;;6125919;23;19998;-81
2022/10/11 14:21:54;;;;;;;11.35;7.22;;;;;;;;;;6233206;22;20042;-79
2022/10/11 14:24:39;;;;;;;13.90;7.22;;;;;;;;;;6124564;23;20002;-84
2022/10/11 14:27:26;;;;;;;16.10;7.28;;;;;;;;;;6104854;23;20416;-79
2022/10/11 14:30:17;;;;;;;17.38;6.95;;;;;;;;;;6124908;23;20006;-81
2022/10/11 14:33:04;;;;;;;13.95;7.38;;;;;;;;;;6124441;23;20012;-76
2022/10/11 14:35:49;;;;;;;12.38;7.57;;;;;;;;;;6104297;23;20005;-73
2022/10/11 14:38:34;;;;;;;12.50;6.63;;;;;;;;;;6124278;23;20012;-74
2022/10/11 14:41:19;;;;;;;16.63;6.78;;;;;;;;;;6124744;23;20489;-73
2022/10/11 14:44:04;;;;;;;15.25;7.85;;;;;;;;;;6127975;23;20032;-73
2022/10/11 14:46:51;;;;;;;18.08;6.93;;;;;;;;;;6147768;23;20054;-72
2022/10/11 14:49:36;;;;;;;19.52;7.03;;;;;;;;;;6124088;23;20016;-73
2022/10/11 14:52:21;;;;;;;16.20;8.20;;;;;;;;;;6210982;22;20303;-73
2022/10/11 14:55:06;;;;;;;12.73;7.57;;;;;;;;;;6124042;22;20005;-70
2022/10/11 14:57:52;;;;;;;15.32;7.05;;;;;;;;;;6124344;23;20048;-69
2022/10/11 15:00:37;;;;;;;14.25;7.65;;;;;;;;;;6124370;23;20005;-70
2022/10/11 15:03:22;;;;;;;15.90;8.50;;;;;;;;;;6124963;23;20014;-68
2022/10/11 15:06:18;;;;;;;17.08;7.85;;;;;;;;;;6123895;23;20004;-68
2022/10/11 15:09:04;;;;;;;15.10;7.45;;;;;;;;;;6123538;23;20005;-69
2022/10/11 15:11:50;;;;;;;15.65;8.82;;;;;;;;;;6124374;23;20017;-70
2022/10/11 15:14:35;;;;;;;13.82;6.80;;;;;;;;;;6123981;23;20511;-75
2022/10/11 15:17:20;;;;;;;15.02;7.55;;;;;;;;;;6130870;23;20005;-75
2022/10/11 15:20:06;;;;;;;13.13;7.78;;;;;;;;;;6145073;23;20005;-75
2022/10/11 15:22:52;;;;;;;16.40;7.75;;;;;;;;;;6122943;23;20017;-76
2022/10/11 15:25:38;;;;;;;15.65;7.55;;;;;;;;;;6233027;22;20014;-75
2022/10/11 15:28:28;;;;;;;16.63;7.60;;;;;;;;;;6211909;23;20010;-84
2022/10/11 15:31:14;;;;;;;12.85;6.97;;;;;;;;;;6125246;23;20033;-74
2022/10/11 15:34:02;;;;;;;13.68;7.50;;;;;;;;;;6232698;22;20298;-75
2022/10/11 15:36:48;;;;;;;15.02;7.30;;;;;;;;;;6145396;23;20052;-73
2022/10/11 15:39:34;;;;;;;22.08;8.05;;;;;;;;;;6124781;23;20057;-73
2022/10/11 15:42:19;;;;;;;12.50;6.80;;;;;;;;;;6124785;23;20367;-73
2022/10/11 15:45:04;;;;;;;13.68;7.47;;;;;;;;;;6104454;23;20005;-75
2022/10/11 15:47:49;;;;;;;17.58;7.68;;;;;;;;;;6148387;23;20040;-75
2022/10/11 15:50:38;;;;;;;18.45;8.55;;;;;;;;;;6129090;23;20092;-74
2022/10/11 15:53:27;;;;;;;17.30;7.88;;;;;;;;;;6124779;23;20016;-73
2022/10/11 15:56:15;;;;;;;18.43;7.93;;;;;;;;;;6230204;22;20090;-72
2022/10/11 15:59:01;;;;;;;12.55;7.05;;;;;;;;;;6232647;22;20002;-73
2022/10/11 16:01:46;;;;;;;15.45;7.38;;;;;;;;;;6124685;23;20002;-73
2022/10/11 16:04:31;;;;;;;15.20;7.95;;;;;;;;;;6146287;23;20066;-73
2022/10/11 16:07:16;;;;;;;20.33;7.18;;;;;;;;;;6148381;23;20063;-70
2022/10/11 16:10:02;;;;;;;16.80;7.50;;;;;;;;;;6211592;22;20013;-67
2022/10/11 16:12:48;;;;;;;15.88;6.88;;;;;;;;;;6125437;23;20005;-69
2022/10/11 16:15:37;;;;;;;14.23;6.68;;;;;;;;;;6126616;23;20017;-67
2022/10/11 16:18:22;;;;;;;12.75;6.80;;;;;;;;;;6126745;23;20028;-68
2022/10/11 16:21:11;;;;;;;18.35;8.00;;;;;;;;;;6113430;23;20045;-67
2022/10/11 16:23:56;;;;;;;16.83;6.95;;;;;;;;;;6146267;23;20009;-70
2022/10/11 16:26:42;;;;;;;13.20;7.45;;;;;;;;;;6212874;22;20013;-75
2022/10/11 16:29:39;;;;;;;15.63;7.28;;;;;;;;;;6066665;23;20006;-75
2022/10/11 16:32:24;;;;;;;14.07;7.10;;;;;;;;;;6065536;23;20048;-74